Time;durP1;ratioP1;P1;durP2;ratioP2;P2;SDS_P1;SDS_P2;PMS_P1;PMS_P2;Temp;Humidity;BMP_temperature;BMP_pressure;BME280_temperature;BME280_humidity;BME280_pressure;Samples;Min_cycle;Max_cycle;Signal;HPM_P1;HPM_P2
2023/03/23 00:00:45;;;;;;;7.82;3.45;;;;;;;11.85;91.67;100128.91;4939292;28;20041;-75
2023/03/23 00:03:11;;;;;;;7.40;3.15;;;;;;;11.73;92.66;100126.94;4985824;28;20031;-75
2023/03/23 00:06:07;;;;;;;4.10;2.40;;;;;;;11.85;91.87;100118.50;4926110;28;20073;-75
2023/03/23 00:08:59;;;;;;;9.70;2.70;;;;;;;11.85;91.56;100126.31;4936910;28;20062;-75
2023/03/23 00:11:50;;;;;;;4.05;2.47;;;;;;;11.79;92.13;100119.25;4931938;28;20066;-75
2023/03/23 00:14:42;;;;;;;7.55;2.80;;;;;;;11.90;91.48;100115.41;4929175;28;20059;-75
2023/03/23 00:17:34;;;;;;;5.75;2.13;;;;;;;11.81;91.62;100117.28;4937672;28;20038;-75
2023/03/23 00:20:24;;;;;;;3.92;2.20;;;;;;;11.72;92.95;100115.75;4927598;28;20085;-75
2023/03/23 00:23:19;;;;;;;5.22;2.40;;;;;;;11.75;92.65;100104.97;4938821;28;20092;-75
2023/03/23 00:26:09;;;;;;;4.00;2.70;;;;;;;11.93;91.36;100106.44;4937699;28;20055;-75
2023/03/23 00:29:03;;;;;;;6.63;2.38;;;;;;;11.81;92.94;100117.28;4944835;28;20043;-75
2023/03/23 00:31:56;;;;;;;5.60;2.95;;;;;;;11.83;92.68;100112.69;4939897;28;20034;-75
2023/03/23 00:34:48;;;;;;;4.07;2.20;;;;;;;11.74;93.07;100116.38;4934710;28;20038;-75
2023/03/23 00:37:38;;;;;;;4.25;2.88;;;;;;;11.82;93.08;100108.47;4939626;28;20114;-75
2023/03/23 00:40:09;;;;;;;5.22;2.88;;;;;;;11.84;92.99;100098.72;4930877;28;20082;-75
2023/03/23 00:42:37;;;;;;;5.95;2.55;;;;;;;11.80;92.85;100107.06;4924836;28;20027;-75
2023/03/23 00:45:10;;;;;;;5.35;2.70;;;;;;;11.77;92.81;100095.25;4930908;28;20051;-75
2023/03/23 00:47:40;;;;;;;5.43;2.45;;;;;;;11.75;93.52;100091.19;4932066;28;20502;-75
2023/03/23 00:50:06;;;;;;;9.30;2.72;;;;;;;11.79;93.29;100095.88;4928778;28;20035;-76
2023/03/23 00:52:31;;;;;;;3.17;2.25;;;;;;;11.81;92.70;100082.69;4920178;28;20409;-75
2023/03/23 00:54:57;;;;;;;7.47;3.25;;;;;;;11.74;93.47;100092.19;4912912;28;20039;-75
2023/03/23 00:57:24;;;;;;;5.80;2.20;;;;;;;11.67;93.98;100099.91;4927526;28;20173;-75
2023/03/23 00:59:53;;;;;;;4.30;2.50;;;;;;;11.83;93.41;100104.09;4907690;28;20039;-75
2023/03/23 01:02:19;;;;;;;5.00;2.53;;;;;;;11.72;93.42;100109.75;4937074;28;20054;-75
2023/03/23 01:04:45;;;;;;;5.07;2.28;;;;;;;11.78;93.60;100109.81;4927686;28;20040;-75
2023/03/23 01:07:14;;;;;;;5.22;2.60;;;;;;;11.84;92.78;100103.09;4926528;28;20062;-75
2023/03/23 01:09:40;;;;;;;6.38;2.28;;;;;;;11.85;92.56;100097.75;4926457;28;20127;-75
2023/03/23 01:12:05;;;;;;;3.83;2.10;;;;;;;11.85;92.07;100097.75;4925771;28;20162;-75
2023/03/23 01:14:32;;;;;;;4.35;2.50;;;;;;;11.79;92.76;100092.44;4927795;28;20089;-75
2023/03/23 01:16:57;;;;;;;4.72;2.58;;;;;;;11.78;92.84;100077.88;4924200;28;20039;-75
2023/03/23 01:19:23;;;;;;;6.10;2.47;;;;;;;11.95;91.58;100088.88;4933270;28;20046;-75
2023/03/23 01:21:48;;;;;;;3.72;2.10;;;;;;;11.86;92.22;100082.94;4928808;28;20051;-75
2023/03/23 01:24:14;;;;;;;4.50;2.75;;;;;;;11.83;92.60;100075.53;4930363;28;20039;-75
2023/03/23 01:26:40;;;;;;;3.92;2.42;;;;;;;11.82;92.96;100069.50;4937024;28;20034;-75
2023/03/23 01:29:05;;;;;;;4.13;2.50;;;;;;;11.75;94.70;100086.81;4941092;28;20546;-75
2023/03/23 01:31:31;;;;;;;3.45;2.65;;;;;;;11.85;94.95;100076.16;4910893;28;20028;-75
2023/03/23 01:33:57;;;;;;;5.00;2.92;;;;;;;11.78;94.76;100060.47;4907393;28;20031;-75
2023/03/23 01:36:28;;;;;;;5.25;2.80;;;;;;;11.76;94.76;100054.66;4932892;28;20043;-75
2023/03/23 01:38:57;;;;;;;4.65;2.60;;;;;;;11.74;95.58;100025.47;4908940;28;20046;-75
2023/03/23 01:41:23;;;;;;;5.80;2.30;;;;;;;11.73;95.74;100031.63;4912051;28;20093;-75
2023/03/23 01:44:16;;;;;;;4.45;2.53;;;;;;;11.76;95.51;100005.31;4907014;28;20043;-75
2023/03/23 01:46:47;;;;;;;6.38;3.38;;;;;;;11.70;95.87;100016.44;4943685;28;20104;-75
2023/03/23 01:49:21;;;;;;;3.78;2.47;;;;;;;11.67;96.55;100050.56;4909337;28;20044;-75
2023/03/23 01:51:52;;;;;;;4.13;2.53;;;;;;;11.65;96.78;100042.13;4951158;28;20039;-75
2023/03/23 01:54:23;;;;;;;3.75;2.55;;;;;;;11.61;96.84;100053.88;4928439;28;20055;-75
2023/03/23 01:56:58;;;;;;;5.80;2.67;;;;;;;11.53;97.87;100067.75;4926745;28;20027;-75
2023/03/23 01:59:26;;;;;;;4.65;2.42;;;;;;;11.47;98.68;100052.88;4936157;28;20050;-75
2023/03/23 02:02:12;;;;;;;7.75;2.70;;;;;;;11.48;98.99;100054.50;4931046;28;20132;-75
2023/03/23 02:04:41;;;;;;;4.07;2.50;;;;;;;11.47;98.97;100045.94;4967892;28;20035;-75
2023/03/23 02:07:08;;;;;;;5.57;2.70;;;;;;;11.50;98.29;100045.53;4914531;28;20420;-75
2023/03/23 02:09:33;;;;;;;3.72;2.42;;;;;;;11.57;98.85;100031.88;4945363;28;20081;-75
2023/03/23 02:11:59;;;;;;;4.03;2.50;;;;;;;11.42;99.21;100035.25;4937850;28;20059;-75
2023/03/23 02:14:27;;;;;;;5.68;2.65;;;;;;;11.50;98.97;100014.38;4939120;28;20037;-75
2023/03/23 02:17:10;;;;;;;5.63;2.88;;;;;;;11.46;99.26;100026.13;4924982;28;20074;-75
2023/03/23 02:20:27;;;;;;;4.57;2.72;;;;;;;11.48;99.12;100033.75;4933154;28;20036;-75
2023/03/23 02:23:31;;;;;;;8.57;2.95;;;;;;;11.32;100.00;100018.34;4890122;28;20056;-75
2023/03/23 02:26:31;;;;;;;6.70;3.30;;;;;;;11.27;100.00;100013.72;4934711;28;20070;-75
2023/03/23 02:29:34;;;;;;;7.40;3.25;;;;;;;11.37;100.00;100011.63;4935197;28;20042;-75
2023/03/23 02:32:42;;;;;;;5.00;2.67;;;;;;;11.46;99.20;100015.75;4931466;28;20086;-75
2023/03/23 02:35:20;;;;;;;4.32;2.67;;;;;;;11.32;99.80;100008.78;4938560;28;20052;-75
2023/03/23 02:37:51;;;;;;;6.05;2.60;;;;;;;11.29;100.00;100014.34;4912891;28;20058;-75
2023/03/23 02:40:31;;;;;;;8.85;2.63;;;;;;;11.29;100.00;100020.31;4949201;28;20035;-75
2023/03/23 02:42:58;;;;;;;3.97;2.65;;;;;;;11.23;100.00;99997.69;4912054;28;20055;-75
2023/03/23 02:45:28;;;;;;;5.57;2.75;;;;;;;11.17;100.00;100015.75;4937557;28;20646;-75
2023/03/23 02:47:55;;;;;;;8.02;3.63;;;;;;;11.15;100.00;100015.94;4921635;28;20078;-75
2023/03/23 02:50:25;;;;;;;7.20;2.50;;;;;;;11.15;100.00;100015.94;4917439;28;20048;-75
2023/03/23 02:52:54;;;;;;;6.68;2.40;;;;;;;11.15;100.00;100015.13;4909110;28;20093;-75
2023/03/23 02:55:24;;;;;;;4.75;2.60;;;;;;;11.19;100.00;100022.38;4921758;28;20194;-75
2023/03/23 02:57:52;;;;;;;3.28;2.60;;;;;;;11.14;100.00;100029.09;4964078;28;20097;-75
2023/03/23 03:00:18;;;;;;;3.63;2.45;;;;;;;11.26;99.04;100020.69;4932007;28;20090;-75
2023/03/23 03:02:52;;;;;;;4.85;2.30;;;;;;;11.26;99.26;100012.91;4911509;28;20043;-74
2023/03/23 03:05:35;;;;;;;8.63;2.53;;;;;;;11.39;97.99;100011.47;4917364;28;20035;-75
2023/03/23 03:08:21;;;;;;;5.32;2.88;;;;;;;11.33;97.93;100010.38;4934487;28;20038;-75
2023/03/23 03:10:53;;;;;;;4.72;2.60;;;;;;;11.30;97.14;100006.38;4942130;28;20062;-75
2023/03/23 03:13:19;;;;;;;3.83;2.00;;;;;;;11.38;97.10;100010.66;4927238;28;20024;-75
2023/03/23 03:16:05;;;;;;;6.80;3.05;;;;;;;11.30;97.40;100008.13;4928030;28;20046;-75
2023/03/23 03:18:39;;;;;;;3.53;2.15;;;;;;;11.44;96.97;100002.16;4922971;28;20042;-75
2023/03/23 03:21:12;;;;;;;4.05;2.40;;;;;;;11.36;97.06;100004.03;4929376;28;20162;-75
2023/03/23 03:23:42;;;;;;;4.35;1.90;;;;;;;11.34;97.12;99986.06;4919435;28;20398;-75
2023/03/23 03:26:11;;;;;;;3.15;1.98;;;;;;;11.35;97.52;99989.44;4943738;28;20042;-75
2023/03/23 03:28:48;;;;;;;3.65;2.13;;;;;;;11.39;97.18;99996.69;4942232;28;20078;-75
2023/03/23 03:31:18;;;;;;;7.75;2.40;;;;;;;11.52;96.88;99984.84;4918925;28;20043;-74
2023/03/23 03:33:45;;;;;;;3.67;2.00;;;;;;;11.52;96.56;99990.06;4934847;28;20039;-75
2023/03/23 03:36:17;;;;;;;2.70;1.92;;;;;;;11.46;96.94;99991.59;4928310;28;20082;-75
2023/03/23 03:38:46;;;;;;;3.33;2.30;;;;;;;11.43;96.75;99984.97;4927179;28;20062;-75
2023/03/23 03:41:13;;;;;;;4.55;2.10;;;;;;;11.40;97.65;99981.94;4930146;28;20031;-75
2023/03/23 03:43:38;;;;;;;5.60;2.30;;;;;;;11.47;97.48;99983.63;4934546;28;20510;-75
2023/03/23 03:46:04;;;;;;;3.85;1.98;;;;;;;11.46;97.09;99971.63;4936939;28;20023;-75
2023/03/23 03:48:31;;;;;;;7.95;2.28;;;;;;;11.39;97.23;99981.09;4934818;23;20117;-74
2023/03/23 03:50:57;;;;;;;3.25;2.13;;;;;;;11.42;97.28;99992.94;4937873;28;20518;-74
2023/03/23 03:53:26;;;;;;;4.40;2.38;;;;;;;11.50;96.89;100001.41;4932814;28;20036;-75
2023/03/23 03:55:55;;;;;;;5.95;2.08;;;;;;;11.51;96.37;99999.63;4919996;28;20193;-74
2023/03/23 03:58:21;;;;;;;4.28;2.38;;;;;;;11.46;96.52;99994.97;4925439;28;20032;-75
2023/03/23 04:01:03;;;;;;;3.88;2.00;;;;;;;11.49;96.58;99999.81;4911946;28;20046;-74
2023/03/23 04:03:33;;;;;;;4.82;3.40;;;;;;;11.46;96.85;99991.59;4996798;28;20054;-74
2023/03/23 04:06:13;;;;;;;4.53;2.65;;;;;;;11.46;96.57;99987.19;4968734;28;20493;-74
2023/03/23 04:08:41;;;;;;;3.75;1.90;;;;;;;11.46;96.16;99992.38;4936397;28;20039;-74
2023/03/23 04:11:12;;;;;;;3.10;2.20;;;;;;;11.42;96.74;99998.94;4942262;28;20398;-74
2023/03/23 04:13:37;;;;;;;4.53;1.92;;;;;;;11.47;96.46;99999.19;4918022;28;20038;-74
2023/03/23 04:16:16;;;;;;;4.95;2.30;;;;;;;11.42;96.72;99998.94;4926835;28;20101;-74
2023/03/23 04:18:44;;;;;;;4.30;2.40;;;;;;;11.38;96.75;99996.88;4928179;28;20088;-74
2023/03/23 04:21:10;;;;;;;3.80;2.35;;;;;;;11.49;96.24;100001.63;4928081;28;20043;-74
2023/03/23 04:23:36;;;;;;;4.13;2.25;;;;;;;11.48;96.10;99994.81;4929948;28;20024;-74
2023/03/23 04:26:03;;;;;;;4.70;2.05;;;;;;;11.53;95.90;100005.44;4993822;28;20088;-74
2023/03/23 04:28:35;;;;;;;5.72;2.40;;;;;;;11.44;95.92;100016.91;4896405;28;20032;-74
2023/03/23 04:31:19;;;;;;;5.95;2.30;;;;;;;11.44;95.66;100015.13;4929846;28;20115;-75
2023/03/23 04:33:54;;;;;;;6.75;2.60;;;;;;;11.42;95.81;100022.28;4914731;28;20047;-74
2023/03/23 04:36:23;;;;;;;5.32;2.08;;;;;;;11.44;96.12;100016.91;4915511;28;20413;-74
2023/03/23 04:38:57;;;;;;;2.78;2.20;;;;;;;11.40;96.33;100007.88;4916985;28;20041;-75
2023/03/23 04:41:24;;;;;;;4.70;2.13;;;;;;;11.44;95.84;100022.13;4917212;28;20031;-75
2023/03/23 04:44:17;;;;;;;3.55;2.17;;;;;;;11.43;96.18;100028.28;4942171;28;20035;-74
2023/03/23 04:46:49;;;;;;;4.90;2.40;;;;;;;11.42;95.88;100024.88;4928690;28;20448;-74
2023/03/23 04:49:20;;;;;;;3.67;2.10;;;;;;;11.46;95.50;100027.94;4898975;28;20031;-75
2023/03/23 04:51:48;;;;;;;4.00;2.15;;;;;;;11.39;95.79;100020.03;4931876;28;20129;-74
2023/03/23 04:54:27;;;;;;;6.50;2.30;;;;;;;11.40;96.48;100028.66;4943296;28;20055;-75
2023/03/23 04:56:54;;;;;;;5.78;2.45;;;;;;;11.34;95.61;100037.13;4923221;28;20027;-74
2023/03/23 04:59:21;;;;;;;3.83;2.20;;;;;;;11.36;95.76;100037.75;4924214;28;20043;-74
2023/03/23 05:02:12;;;;;;;4.78;2.25;;;;;;;11.33;96.23;100043.34;4921969;28;20031;-75
2023/03/23 05:04:40;;;;;;;3.85;2.38;;;;;;;11.27;96.40;100037.06;4936601;28;20040;-74
2023/03/23 05:07:12;;;;;;;6.10;2.50;;;;;;;11.34;95.93;100034.53;4927903;28;20035;-74
2023/03/23 05:09:47;;;;;;;3.88;2.53;;;;;;;11.30;95.95;100036.69;4923911;28;20034;-75
2023/03/23 05:12:13;;;;;;;5.32;2.65;;;;;;;11.33;95.77;100041.53;4938610;28;20044;-74
2023/03/23 05:15:00;;;;;;;4.65;2.35;;;;;;;11.41;95.64;100031.03;4916052;28;20038;-74
2023/03/23 05:17:29;;;;;;;5.57;2.92;;;;;;;11.34;95.48;100040.56;4933762;28;20189;-74
2023/03/23 05:19:57;;;;;;;3.55;2.42;;;;;;;11.33;95.83;100045.94;4922700;28;20469;-74
2023/03/23 05:22:44;;;;;;;8.18;2.50;;;;;;;11.30;95.64;100049.66;4930048;28;20031;-74
2023/03/23 05:25:10;;;;;;;6.60;2.58;;;;;;;11.34;95.89;100048.34;4941453;28;20050;-74
2023/03/23 05:27:43;;;;;;;5.28;2.30;;;;;;;11.32;96.06;100052.09;4914567;28;20059;-74
2023/03/23 05:30:21;;;;;;;6.78;3.30;;;;;;;11.35;95.93;100046.53;4930337;28;20040;-74
2023/03/23 05:32:50;;;;;;;3.58;2.20;;;;;;;11.35;95.65;100043.94;4906906;28;20031;-75
2023/03/23 05:35:29;;;;;;;7.70;3.00;;;;;;;11.37;95.93;100041.97;4926431;28;20042;-74
2023/03/23 05:37:55;;;;;;;8.50;2.60;;;;;;;11.31;95.99;100051.28;4939922;28;20036;-74
2023/03/23 05:40:21;;;;;;;5.38;2.92;;;;;;;11.16;96.70;100053.88;4923938;28;20056;-74
2023/03/23 05:42:58;;;;;;;7.15;1.98;;;;;;;11.39;95.83;100051.19;4911607;28;20032;-74
2023/03/23 05:45:31;;;;;;;5.57;2.47;;;;;;;11.32;96.17;100058.09;4984733;28;20044;-74
2023/03/23 05:47:56;;;;;;;4.40;2.47;;;;;;;11.36;95.65;100053.34;4926883;28;20030;-74
2023/03/23 05:50:26;;;;;;;5.97;2.67;;;;;;;11.35;95.45;100055.13;4929602;28;20035;-75
2023/03/23 05:52:51;;;;;;;7.32;2.30;;;;;;;11.28;95.81;100056.81;4916188;28;20568;-75
2023/03/23 05:55:19;;;;;;;4.63;2.13;;;;;;;11.30;96.02;100054.84;4916262;28;20097;-74
2023/03/23 05:57:52;;;;;;;5.07;2.72;;;;;;;11.26;95.70;100048.41;4913714;28;20473;-74
2023/03/23 06:00:28;;;;;;;4.35;2.30;;;;;;;11.32;95.78;100062.47;4932970;28;20039;-74
2023/03/23 06:03:02;;;;;;;8.88;2.78;;;;;;;11.35;95.40;100064.72;4944444;28;20028;-74
2023/03/23 06:05:34;;;;;;;;;;;;;;;11.39;94.71;100058.97;4925029;28;20120;-74
2023/03/23 06:07:59;;;;;;;9.90;3.15;;;;;;;11.28;95.17;100064.59;4926126;28;20436;-74
2023/03/23 06:10:26;;;;;;;7.85;2.58;;;;;;;11.35;95.19;100062.91;4925108;28;20402;-74
2023/03/23 06:12:58;;;;;;;3.75;2.35;;;;;;;11.24;95.11;100063.34;4927357;28;20421;-74
2023/03/23 06:15:32;;;;;;;5.18;2.28;;;;;;;11.36;94.71;100063.72;4932804;28;20043;-75
2023/03/23 06:18:06;;;;;;;4.15;2.20;;;;;;;11.22;95.00;100081.69;4942306;28;20135;-75
2023/03/23 06:20:40;;;;;;;;;;;;;;;11.36;94.28;100076.69;4927464;28;20502;-74
2023/03/23 06:23:21;;;;;;;13.70;2.42;;;;;;;11.36;94.11;100067.13;4934561;28;20288;-75
2023/03/23 06:25:49;;;;;;;5.20;2.00;;;;;;;11.33;94.70;100077.88;4976690;28;20038;-74
2023/03/23 06:28:15;;;;;;;5.45;1.88;;;;;;;11.33;94.53;100079.66;4912024;28;20178;-75
2023/03/23 06:30:43;;;;;;;4.75;1.98;;;;;;;11.38;93.70;100082.53;4976221;28;20040;-74
2023/03/23 06:33:09;;;;;;;5.68;2.33;;;;;;;11.42;93.27;100081.19;4991779;28;20031;-75
2023/03/23 06:36:02;;;;;;;5.53;2.10;;;;;;;11.41;92.93;100075.19;4947646;28;20510;-75
2023/03/23 06:38:53;;;;;;;6.20;2.03;;;;;;;11.52;92.93;100086.91;4983836;28;20510;-75
2023/03/23 06:41:26;;;;;;;6.47;2.38;;;;;;;11.50;92.87;100089.69;4920052;28;20111;-75
2023/03/23 06:43:53;;;;;;;5.65;2.20;;;;;;;11.57;91.40;100089.00;4943600;28;20047;-75
2023/03/23 06:46:24;;;;;;;8.57;2.13;;;;;;;11.57;91.99;100078.59;4959978;28;20043;-74
2023/03/23 06:48:54;;;;;;;6.55;1.90;;;;;;;11.61;91.10;100085.03;4967824;28;20114;-74
2023/03/23 06:51:28;;;;;;;3.90;1.88;;;;;;;11.62;91.29;100089.22;4947467;28;20081;-74
2023/03/23 06:53:55;;;;;;;6.50;2.05;;;;;;;11.56;91.45;100095.94;4936328;28;20115;-75
2023/03/23 06:56:21;;;;;;;5.40;1.90;;;;;;;11.73;89.92;100099.16;4924254;28;20080;-74
2023/03/23 06:58:47;;;;;;;4.43;1.85;;;;;;;11.69;90.43;100103.13;4993985;28;20456;-74
2023/03/23 07:01:14;;;;;;;5.55;1.50;;;;;;;11.69;90.80;100090.94;4927330;28;20035;-74
2023/03/23 07:03:48;;;;;;;11.23;1.92;;;;;;;11.62;90.42;100104.81;4936627;28;20529;-74
2023/03/23 07:06:19;;;;;;;8.48;1.90;;;;;;;11.69;90.08;100108.31;4900202;28;20157;-75
2023/03/23 07:08:51;;;;;;;7.95;1.55;;;;;;;11.71;89.27;100102.94;4927152;28;20040;-75
2023/03/23 07:11:21;;;;;;;6.15;1.90;;;;;;;11.77;89.93;100117.78;4931002;28;20035;-75
2023/03/23 07:13:47;;;;;;;5.05;1.80;;;;;;;11.81;89.03;100109.47;4899260;28;20040;-74
2023/03/23 07:16:14;;;;;;;5.13;1.63;;;;;;;11.76;89.53;100108.41;4913780;28;20078;-74
2023/03/23 07:18:39;;;;;;;3.60;1.52;;;;;;;11.78;89.20;100109.03;4926814;28;20048;-75
2023/03/23 07:21:07;;;;;;;2.88;1.40;;;;;;;11.75;89.49;100104.19;4945548;28;20083;-75
2023/03/23 07:23:32;;;;;;;3.72;1.60;;;;;;;11.80;89.64;100101.84;4931718;28;20111;-75
2023/03/23 07:26:03;;;;;;;6.15;1.80;;;;;;;11.81;89.38;100098.25;4918194;28;20047;-74
2023/03/23 07:28:36;;;;;;;7.70;2.17;;;;;;;11.79;89.06;100098.47;4931214;28;20032;-75
2023/03/23 07:31:12;;;;;;;6.28;1.90;;;;;;;11.77;88.87;100097.84;4934786;28;20040;-74
2023/03/23 07:33:38;;;;;;;6.95;2.08;;;;;;;11.80;88.06;100101.84;4932071;28;20039;-74
2023/03/23 07:36:06;;;;;;;3.22;1.35;;;;;;;11.87;89.25;100100.94;4932397;28;20119;-74
2023/03/23 08:27:50;;;;;;;4.80;1.38;;;;;;;12.71;82.46;100119.66;4942130;28;20045;-75
2023/03/23 08:53:26;;;;;;;9.70;1.90;;;;;;;12.64;80.35;100140.41;4972079;28;20057;-74
2023/03/23 09:16:28;;;;;;;7.72;2.13;;;;;;;12.85;80.38;100137.00;4933253;28;20591;-75
2023/03/23 09:18:56;;;;;;;10.05;2.03;;;;;;;12.81;80.01;100135.78;4971032;28;20072;-74
2023/03/23 09:21:24;;;;;;;5.03;1.63;;;;;;;12.83;79.73;100154.59;4913388;28;20032;-75
2023/03/23 09:23:51;;;;;;;7.82;1.38;;;;;;;12.78;80.42;100146.53;4992615;28;20574;-75
2023/03/23 09:26:17;;;;;;;10.05;2.40;;;;;;;12.85;80.05;100155.22;4953214;28;20028;-74
2023/03/23 09:28:44;;;;;;;5.90;1.30;;;;;;;12.73;79.85;100199.13;4934585;28;20513;-74
2023/03/23 09:31:10;;;;;;;8.25;2.03;;;;;;;12.63;83.47;100222.81;4929469;28;20550;-74
2023/03/23 09:33:37;;;;;;;5.05;0.70;;;;;;;12.05;88.70;100232.31;4928418;28;20081;-75
2023/03/23 09:36:04;;;;;;;4.38;1.45;;;;;;;11.59;93.76;100238.41;4907048;28;20037;-75
2023/03/23 09:38:33;;;;;;;4.32;0.60;;;;;;;11.22;96.07;100242.59;4955065;28;20049;-75
2023/03/23 09:41:04;;;;;;;5.85;1.13;;;;;;;11.19;97.70;100258.53;4927036;28;20024;-75
2023/03/23 09:44:25;;;;;;;5.65;0.60;;;;;;;11.14;98.58;100247.84;4927026;28;20028;-75
2023/03/23 09:47:14;;;;;;;7.20;0.75;;;;;;;10.83;100.00;100255.66;4956608;28;20047;-75
2023/03/23 09:49:46;;;;;;;7.03;0.98;;;;;;;10.79;100.00;100255.19;4953006;28;20110;-75
2023/03/23 09:52:15;;;;;;;6.63;0.85;;;;;;;10.83;100.00;100259.06;4923796;28;20047;-74
2023/03/23 09:54:43;;;;;;;2.60;0.50;;;;;;;10.85;100.00;100258.88;4895368;28;20067;-75
2023/03/23 09:57:36;;;;;;;1.35;0.88;;;;;;;10.66;100.00;100255.75;4928668;28;20044;-75
2023/03/23 10:00:17;;;;;;;1.00;0.50;;;;;;;10.67;100.00;100249.59;4913373;28;20042;-74
2023/03/23 10:03:15;;;;;;;2.45;0.95;;;;;;;10.46;100.00;100270.09;4935963;28;20058;-76
2023/03/23 10:05:54;;;;;;;4.80;0.60;;;;;;;10.56;100.00;100268.09;4907419;28;20040;-75
2023/03/23 10:08:20;;;;;;;5.80;0.68;;;;;;;10.33;100.00;100268.03;4915056;28;20261;-75
2023/03/23 10:11:24;;;;;;;3.65;0.55;;;;;;;10.22;100.00;100273.53;4934362;23;20043;-70
2023/03/23 10:14:05;;;;;;;1.58;0.45;;;;;;;10.25;100.00;100278.41;4942232;28;20035;-71
2023/03/23 10:16:37;;;;;;;1.73;0.70;;;;;;;10.14;100.00;100288.13;4958289;28;20065;-71
2023/03/23 10:19:20;;;;;;;1.98;0.60;;;;;;;10.03;100.00;100275.53;4954537;28;20126;-70
2023/03/23 10:21:52;;;;;;;;;;;;;;;9.94;100.00;100269.56;4945970;28;20470;-71
2023/03/23 10:24:25;;;;;;;3.28;0.73;;;;;;;10.02;100.00;100275.69;4939756;28;20474;-71
2023/03/23 10:27:16;;;;;;;2.55;0.70;;;;;;;10.02;100.00;100268.75;4943097;28;20042;-71
2023/03/23 10:29:54;;;;;;;1.88;0.63;;;;;;;10.07;100.00;100268.25;4944907;28;20417;-71
2023/03/23 10:33:13;;;;;;;4.70;1.10;;;;;;;10.02;100.00;100273.09;4929093;28;20039;-71
2023/03/23 10:35:42;;;;;;;7.20;1.10;;;;;;;9.96;100.00;100281.53;4902139;28;20187;-70
2023/03/23 10:38:22;;;;;;;4.70;0.93;;;;;;;10.01;100.00;100274.88;4916772;28;20604;-70
2023/03/23 10:41:11;;;;;;;3.38;0.60;;;;;;;9.91;100.00;100282.84;4940582;28;20043;-71
2023/03/23 10:43:37;;;;;;;3.60;0.75;;;;;;;9.94;100.00;100281.69;4938196;28;20050;-71
2023/03/23 10:46:29;;;;;;;4.85;0.90;;;;;;;10.03;100.00;100277.31;4941948;28;20031;-71
2023/03/23 10:49:00;;;;;;;4.80;1.10;;;;;;;10.01;100.00;100277.47;4912259;28;20176;-71
2023/03/23 11:02:58;;;;;;;7.55;1.15;;;;;;;10.19;100.00;100282.47;4946125;28;20542;-71
2023/03/23 11:05:32;;;;;;;5.07;1.27;;;;;;;10.26;100.00;100301.53;4959115;28;20044;-71
2023/03/23 11:08:01;;;;;;;4.53;1.00;;;;;;;10.23;100.00;100278.56;5000358;28;20038;-71
2023/03/23 11:52:42;;;;;;;2.47;0.90;;;;;;;11.48;100.00;100264.81;4940747;28;20046;-70
2023/03/23 11:55:37;;;;;;;3.03;0.90;;;;;;;11.45;100.00;100271.16;4929251;28;20505;-71
2023/03/23 11:58:15;;;;;;;3.10;1.00;;;;;;;11.46;100.00;100277.94;4944143;28;20042;-72
2023/03/23 12:01:05;;;;;;;2.85;1.25;;;;;;;11.45;100.00;100265.97;4924839;28;20043;-71
2023/03/23 12:03:59;;;;;;;3.25;1.15;;;;;;;11.34;100.00;100275.94;5008818;28;20035;-71
2023/03/23 12:14:10;;;;;;;6.68;1.83;;;;;;;11.50;100.00;100262.84;4945065;28;20061;-71
2023/03/23 12:17:07;;;;;;;5.20;1.33;;;;;;;11.46;100.00;100269.38;4939249;28;20035;-71
2023/03/23 12:19:59;;;;;;;2.03;1.42;;;;;;;11.38;100.00;100274.63;4928940;28;20035;-70
2023/03/23 12:22:42;;;;;;;6.25;1.90;;;;;;;11.37;100.00;100276.41;4944547;28;20054;-70
2023/03/23 12:25:29;;;;;;;3.53;1.73;;;;;;;11.28;100.00;100280.84;4924910;28;20100;-71
2023/03/23 12:28:29;;;;;;;7.10;2.15;;;;;;;11.25;100.00;100276.00;4924419;28;20039;-71
2023/03/23 12:31:36;;;;;;;2.78;1.48;;;;;;;11.16;100.00;100271.84;4940461;28;20044;-71
2023/03/23 12:38:02;;;;;;;6.50;1.90;;;;;;;11.26;100.00;100266.41;4944980;28;20515;-71
2023/03/23 12:40:32;;;;;;;7.75;1.92;;;;;;;11.28;100.00;100267.88;4982255;28;20047;-71
2023/03/23 12:54:24;;;;;;;3.78;1.50;;;;;;;11.42;100.00;100252.53;4938467;28;20096;-70
2023/03/23 13:08:56;;;;;;;5.43;1.50;;;;;;;12.01;100.00;100225.84;4925920;28;20078;-70
2023/03/23 13:38:46;;;;;;;4.00;2.70;;;;;;;12.29;100.00;100227.84;4950127;29;20105;-70
2023/03/23 13:41:27;;;;;;;8.67;2.60;;;;;;;12.30;100.00;100232.03;4921709;28;20036;-70
2023/03/23 13:44:05;;;;;;;5.22;2.63;;;;;;;12.24;100.00;100236.97;4926984;28;20035;-70
2023/03/23 13:46:31;;;;;;;5.15;2.63;;;;;;;12.28;100.00;100250.41;4924623;28;20122;-70
2023/03/23 14:00:32;;;;;;;4.57;2.70;;;;;;;12.88;100.00;100245.91;4940388;28;20080;-70
2023/03/23 16:05:58;;;;;;;6.53;1.50;;;;;;;13.82;89.01;100112.84;4947554;28;20042;-70
2023/03/23 16:08:26;;;;;;;9.10;2.20;;;;;;;13.78;89.54;100116.81;4951866;28;20500;-70
2023/03/23 16:10:52;;;;;;;8.45;2.60;;;;;;;13.74;90.33;100115.59;4918380;28;20122;-70
2023/03/23 16:13:18;;;;;;;4.85;2.20;;;;;;;13.62;90.59;100109.34;4945083;28;20032;-70
2023/03/23 16:15:46;;;;;;;7.15;2.10;;;;;;;13.71;89.25;100117.78;4940239;28;20066;-70
2023/03/23 16:18:23;;;;;;;6.40;2.80;;;;;;;13.69;89.02;100107.56;4929764;28;20035;-70
2023/03/23 16:20:57;;;;;;;7.70;1.88;;;;;;;13.74;89.64;100118.22;4921610;28;20400;-70
2023/03/23 16:23:29;;;;;;;6.93;2.50;;;;;;;13.75;89.74;100112.00;4944082;28;20034;-70
2023/03/23 16:25:56;;;;;;;5.97;2.25;;;;;;;13.77;88.02;100106.63;4949304;23;20093;-80
2023/03/23 16:28:22;;;;;;;6.90;1.83;;;;;;;13.80;87.23;100095.78;4943125;28;20047;-77
2023/03/23 16:30:47;;;;;;;7.85;1.90;;;;;;;13.81;87.07;100106.03;4942481;28;20057;-78
2023/03/23 16:33:13;;;;;;;5.82;2.20;;;;;;;13.71;88.43;100116.00;4954992;28;20031;-79
2023/03/23 16:35:39;;;;;;;5.10;1.90;;;;;;;13.74;86.56;100120.81;4945588;28;20031;-77
2023/03/23 16:38:04;;;;;;;9.02;2.05;;;;;;;13.89;85.84;100122.50;4947575;28;20030;-77
2023/03/23 16:40:30;;;;;;;5.82;2.28;;;;;;;13.75;85.57;100126.81;4956068;28;20649;-77
2023/03/23 16:42:56;;;;;;;4.72;2.03;;;;;;;13.76;85.48;100121.44;4956052;28;20039;-78
2023/03/23 16:45:22;;;;;;;11.35;2.22;;;;;;;13.74;84.70;100115.59;4983511;28;20140;-78
2023/03/23 16:47:48;;;;;;;9.25;2.28;;;;;;;13.82;84.26;100122.44;4940419;28;20509;-77
2023/03/23 16:50:15;;;;;;;6.05;2.08;;;;;;;13.80;84.16;100125.25;4938674;28;20118;-77
2023/03/23 16:52:46;;;;;;;4.60;1.80;;;;;;;13.60;84.73;100124.38;4939067;28;20035;-77
2023/03/23 16:55:12;;;;;;;4.70;1.92;;;;;;;13.51;84.67;100128.91;4939286;28;20501;-78
2023/03/23 16:57:38;;;;;;;8.45;1.65;;;;;;;13.63;83.37;100129.97;4945857;28;20051;-77
2023/03/23 17:00:08;;;;;;;9.38;2.40;;;;;;;13.59;82.45;100139.16;4941817;28;20039;-75
2023/03/23 17:02:36;;;;;;;5.28;2.28;;;;;;;13.51;82.12;100143.75;4944744;28;20115;-78
2023/03/23 17:05:02;;;;;;;3.67;1.60;;;;;;;13.66;80.02;100141.81;4962366;28;20082;-78
2023/03/23 17:07:28;;;;;;;5.70;1.88;;;;;;;13.57;80.13;100145.56;4978907;28;20036;-77
2023/03/23 17:09:53;;;;;;;5.45;2.60;;;;;;;13.67;79.76;100142.63;4942702;28;20035;-77
2023/03/23 17:12:19;;;;;;;6.75;1.80;;;;;;;13.61;79.20;100144.19;4946515;28;20025;-76
2023/03/23 17:14:45;;;;;;;7.82;2.50;;;;;;;13.57;80.08;100146.38;4937290;28;20433;-77
2023/03/23 17:17:10;;;;;;;7.70;2.25;;;;;;;13.62;78.08;100144.00;4951517;28;20046;-77
2023/03/23 17:19:36;;;;;;;9.73;2.25;;;;;;;13.46;79.40;100144.31;4939062;28;20039;-78
2023/03/23 17:22:01;;;;;;;5.63;1.90;;;;;;;13.49;78.84;100141.31;4943275;28;20093;-77
2023/03/23 17:24:27;;;;;;;9.25;1.90;;;;;;;13.48;78.24;100141.50;4922332;28;20042;-77
2023/03/23 17:26:53;;;;;;;4.65;2.00;;;;;;;13.43;78.90;100136.88;4933830;28;20035;-78
2023/03/23 17:29:21;;;;;;;5.15;2.03;;;;;;;13.35;79.53;100137.00;4937468;28;20035;-78
2023/03/23 17:31:47;;;;;;;6.75;2.40;;;;;;;13.24;79.51;100140.91;4956678;28;20483;-77
2023/03/23 17:34:12;;;;;;;9.00;1.60;;;;;;;13.32;78.34;100135.59;4943398;28;20562;-79
2023/03/23 17:36:38;;;;;;;12.60;2.50;;;;;;;13.30;77.95;100142.81;4953211;28;20027;-77